Time;durP1;ratioP1;P1;durP2;ratioP2;P2;SDS_P1;SDS_P2;PMS_P1;PMS_P2;Temp;Humidity;BMP_temperature;BMP_pressure;BME280_temperature;BME280_humidity;BME280_pressure;Samples;Min_cycle;Max_cycle;Signal;HPM_P1;HPM_P2
2023/05/01 00:02:13;;;;;;;5.18;4.80;;;;;;;10.86;100.00;63120.66;5026919;28;20325;-77
2023/05/01 00:04:40;;;;;;;5.10;4.68;;;;;;;10.87;100.00;63118.63;5019377;28;20214;-77
2023/05/01 00:07:07;;;;;;;5.45;4.95;;;;;;;10.85;100.00;63116.56;5017231;28;20211;-77
2023/05/01 00:09:36;;;;;;;5.63;5.22;;;;;;;10.86;100.00;63118.09;5012002;28;20411;-76
2023/05/01 00:12:03;;;;;;;5.03;4.55;;;;;;;10.78;100.00;63109.31;5010721;28;20231;-75
2023/05/01 00:14:30;;;;;;;5.43;5.00;;;;;;;10.75;100.00;63111.81;5028242;28;20205;-76
2023/05/01 00:16:57;;;;;;;5.50;5.00;;;;;;;10.71;100.00;63104.63;5021714;28;20531;-75
2023/05/01 00:19:24;;;;;;;5.03;4.47;;;;;;;10.77;100.00;63106.25;5023331;28;20274;-76
2023/05/01 00:21:51;;;;;;;5.18;4.78;;;;;;;10.77;100.00;63106.25;5009442;28;20562;-76
2023/05/01 00:24:18;;;;;;;5.60;4.90;;;;;;;10.73;100.00;63104.66;5007013;28;20430;-77
2023/05/01 00:26:47;;;;;;;5.25;4.95;;;;;;;10.67;100.00;63095.38;5011695;28;20520;-76
2023/05/01 00:29:14;;;;;;;7.53;5.82;;;;;;;10.62;100.00;63095.28;5010702;28;20227;-76
2023/05/01 00:31:42;;;;;;;5.22;4.82;;;;;;;10.63;100.00;63101.44;5010294;28;20205;-76
2023/05/01 00:34:09;;;;;;;5.40;4.90;;;;;;;10.64;100.00;63097.88;5006251;28;20211;-75
2023/05/01 00:36:36;;;;;;;5.45;4.57;;;;;;;10.55;100.00;63085.50;5007196;28;20548;-78
2023/05/01 00:39:03;;;;;;;7.03;5.10;;;;;;;10.59;100.00;63089.66;5012837;28;20511;-76
2023/05/01 00:41:30;;;;;;;5.30;4.38;;;;;;;10.52;100.00;63079.84;5006950;28;20211;-76
2023/05/01 00:43:58;;;;;;;5.38;4.70;;;;;;;10.45;100.00;63076.19;5019340;28;20273;-76
2023/05/01 00:46:26;;;;;;;4.90;4.57;;;;;;;10.40;100.00;63076.13;5012923;28;20945;-75
2023/05/01 00:48:54;;;;;;;6.30;4.70;;;;;;;10.43;100.00;63074.13;5008031;28;20215;-76
2023/05/01 00:51:21;;;;;;;5.07;4.50;;;;;;;10.36;100.00;63063.81;5007308;28;20207;-75
2023/05/01 00:53:48;;;;;;;4.93;4.53;;;;;;;10.31;100.00;63063.72;5007283;28;20396;-76
2023/05/01 00:56:16;;;;;;;5.65;5.13;;;;;;;10.28;100.00;63058.09;5006105;28;20230;-77
2023/05/01 00:58:45;;;;;;;6.03;5.43;;;;;;;10.10;100.00;63039.97;5006756;28;20228;-75
2023/05/01 01:01:14;;;;;;;5.38;5.00;;;;;;;10.20;100.00;63047.78;5009091;28;20231;-76
2023/05/01 01:03:41;;;;;;;6.22;5.00;;;;;;;10.18;100.00;63047.75;5025090;28;20374;-75
2023/05/01 01:06:15;;;;;;;5.70;5.30;;;;;;;10.05;100.00;63037.31;5006875;28;20231;-78
2023/05/01 01:08:49;;;;;;;5.32;4.82;;;;;;;9.97;100.00;63026.00;5006493;28;20223;-75
2023/05/01 01:11:24;;;;;;;6.40;5.20;;;;;;;9.97;100.00;63026.00;5018180;28;20199;-75
2023/05/01 01:13:59;;;;;;;8.20;5.20;;;;;;;9.99;100.00;63025.53;5021137;28;20590;-76
2023/05/01 01:16:37;;;;;;;5.72;5.22;;;;;;;9.98;100.00;63027.00;5028579;28;20234;-75
2023/05/01 01:19:26;;;;;;;5.35;4.85;;;;;;;9.90;100.00;63021.28;5024709;28;20233;-75
2023/05/01 01:22:02;;;;;;;5.22;4.88;;;;;;;9.87;100.00;63011.06;5020419;28;20583;-76
2023/05/01 01:24:59;;;;;;;5.43;4.65;;;;;;;9.79;100.00;63007.38;5025497;28;20205;-76
2023/05/01 01:27:51;;;;;;;5.55;4.60;;;;;;;9.80;100.00;63011.44;5022734;28;20282;-77
2023/05/01 01:30:54;;;;;;;5.30;4.93;;;;;;;9.75;100.00;63006.28;5009444;28;20210;-75
2023/05/01 01:33:54;;;;;;;6.15;4.78;;;;;;;9.74;100.00;63002.19;5006806;28;20230;-75
2023/05/01 01:36:28;;;;;;;5.57;5.13;;;;;;;9.73;100.00;63004.22;5009725;28;20412;-75
2023/05/01 01:39:03;;;;;;;5.18;4.70;;;;;;;9.77;100.00;63008.34;5006895;28;20226;-77
2023/05/01 01:41:33;;;;;;;5.38;4.97;;;;;;;9.78;100.00;63006.84;5006719;28;20290;-76
2023/05/01 01:44:05;;;;;;;5.28;4.97;;;;;;;9.72;100.00;62995.56;5015425;28;20214;-76
2023/05/01 01:46:37;;;;;;;5.90;5.50;;;;;;;9.79;100.00;63007.38;5019833;28;20234;-76
2023/05/01 01:49:11;;;;;;;5.65;5.22;;;;;;;9.78;100.00;63006.84;5005263;28;20200;-77
2023/05/01 01:51:41;;;;;;;5.22;4.82;;;;;;;9.79;100.00;63007.88;5005407;28;20282;-78
2023/05/01 01:54:11;;;;;;;5.43;5.03;;;;;;;9.75;100.00;63006.28;5007477;28;20199;-76
2023/05/01 01:56:41;;;;;;;8.63;5.43;;;;;;;9.76;100.00;63004.78;5021202;28;20234;-77
2023/05/01 01:59:11;;;;;;;5.45;5.05;;;;;;;9.81;100.00;63009.44;5012672;28;20203;-76
2023/05/01 02:01:41;;;;;;;6.88;5.40;;;;;;;9.78;100.00;63006.84;5005206;28;20218;-77
2023/05/01 02:04:11;;;;;;;5.38;4.97;;;;;;;9.82;100.00;63010.97;5024114;28;20211;-76
2023/05/01 02:06:40;;;;;;;5.18;4.78;;;;;;;9.86;100.00;63015.13;5010256;28;20195;-76
2023/05/01 02:09:09;;;;;;;5.30;5.00;;;;;;;9.88;100.00;63016.69;5013470;28;20242;-77
2023/05/01 02:11:37;;;;;;;4.95;4.55;;;;;;;9.87;100.00;63016.16;5005925;28;21206;-77
2023/05/01 02:14:08;;;;;;;5.65;4.82;;;;;;;9.86;100.00;63015.13;5006462;28;20199;-76
2023/05/01 02:16:36;;;;;;;5.60;4.45;;;;;;;9.90;100.00;63018.75;5005618;28;20543;-77
2023/05/01 02:19:05;;;;;;;4.45;4.25;;;;;;;9.87;100.00;63015.66;5011078;28;20199;-76
2023/05/01 02:21:37;;;;;;;5.22;4.80;;;;;;;9.71;100.00;62999.09;5004905;28;20267;-77
2023/05/01 02:24:06;;;;;;;4.45;4.15;;;;;;;9.81;100.00;63014.53;5005285;28;20199;-77
2023/05/01 02:26:42;;;;;;;4.65;4.38;;;;;;;9.79;100.00;63007.88;5011223;28;20518;-76
2023/05/01 02:29:10;;;;;;;5.32;4.70;;;;;;;9.74;100.00;63005.25;5019109;28;20217;-77
2023/05/01 02:31:37;;;;;;;4.35;4.05;;;;;;;9.72;100.00;63002.66;5025429;28;20282;-75
2023/05/01 02:34:04;;;;;;;4.07;3.88;;;;;;;9.69;100.00;62997.03;5025883;28;20266;-76
2023/05/01 02:36:32;;;;;;;4.60;4.28;;;;;;;9.67;100.00;62992.94;5010743;28;20454;-76
2023/05/01 02:39:01;;;;;;;4.93;4.63;;;;;;;9.61;100.00;62988.75;5020764;28;20198;-78
2023/05/01 02:41:29;;;;;;;4.70;4.25;;;;;;;9.61;100.00;62989.25;5023995;28;20210;-77
2023/05/01 02:44:00;;;;;;;4.28;3.97;;;;;;;9.53;100.00;62983.53;5025172;28;20225;-77
2023/05/01 02:46:31;;;;;;;6.28;4.57;;;;;;;9.53;100.00;62981.00;5008884;28;20407;-76
2023/05/01 02:49:00;;;;;;;5.05;4.75;;;;;;;9.55;100.00;62982.53;5004454;28;20262;-76
2023/05/01 02:51:28;;;;;;;5.32;4.93;;;;;;;9.46;100.00;62973.75;5004459;28;20254;-77
2023/05/01 02:53:56;;;;;;;5.00;4.70;;;;;;;9.46;100.00;62973.75;5003808;28;20247;-77
2023/05/01 02:56:27;;;;;;;5.22;4.80;;;;;;;9.45;100.00;62970.19;5015167;28;20237;-76
2023/05/01 02:58:54;;;;;;;4.65;4.28;;;;;;;9.37;100.00;62966.47;5027477;28;20283;-79
2023/05/01 03:01:22;;;;;;;5.20;4.80;;;;;;;9.23;100.00;62952.53;5022145;28;20352;-76
2023/05/01 03:03:49;;;;;;;5.07;4.60;;;;;;;9.28;100.00;62952.63;5007606;28;20574;-75
2023/05/01 03:06:18;;;;;;;5.20;4.75;;;;;;;9.36;100.00;62965.97;5004821;28;20204;-77
2023/05/01 03:08:46;;;;;;;5.35;4.85;;;;;;;9.32;100.00;62959.81;5004102;28;20239;-76
2023/05/01 03:11:14;;;;;;;4.28;4.00;;;;;;;9.21;100.00;62956.03;5005634;28;20306;-75
2023/05/01 03:13:43;;;;;;;4.82;4.53;;;;;;;9.12;100.00;62936.06;5007785;28;20285;-76
2023/05/01 03:16:10;;;;;;;5.95;5.35;;;;;;;9.13;100.00;62940.16;5005205;28;20241;-76
2023/05/01 03:18:38;;;;;;;5.60;5.07;;;;;;;9.14;100.00;62940.69;5003848;28;20574;-76
2023/05/01 03:21:05;;;;;;;7.05;5.47;;;;;;;9.16;100.00;62945.28;5004839;28;20259;-77
2023/05/01 03:23:32;;;;;;;7.97;5.72;;;;;;;9.14;100.00;62941.19;5011099;28;20486;-77
2023/05/01 03:25:59;;;;;;;6.47;5.75;;;;;;;9.21;100.00;62947.91;5006979;28;20426;-77
2023/05/01 03:28:27;;;;;;;5.95;5.43;;;;;;;9.21;100.00;62948.41;5015571;28;20223;-76
2023/05/01 03:30:55;;;;;;;5.75;5.25;;;;;;;9.19;100.00;62948.91;5013474;28;20207;-77
2023/05/01 03:33:22;;;;;;;5.13;4.72;;;;;;;9.20;100.00;62944.34;5007977;28;20476;-76
2023/05/01 03:35:59;;;;;;;6.20;5.57;;;;;;;9.16;100.00;62947.84;5008157;28;20199;-77
2023/05/01 03:38:27;;;;;;;7.80;6.32;;;;;;;9.12;100.00;62941.66;5009488;28;20218;-77
2023/05/01 03:40:54;;;;;;;6.90;6.28;;;;;;;9.11;100.00;62937.59;5028903;28;20194;-77
2023/05/01 03:43:21;;;;;;;6.22;5.72;;;;;;;9.09;100.00;62936.00;5012717;28;20231;-78
2023/05/01 03:45:48;;;;;;;6.32;5.72;;;;;;;9.09;100.00;62938.06;5016974;28;20213;-78
2023/05/01 03:48:16;;;;;;;6.00;5.53;;;;;;;9.13;100.00;62939.63;5008267;28;20223;-76
2023/05/01 03:50:43;;;;;;;6.57;5.93;;;;;;;9.09;100.00;62933.47;5008262;28;20336;-77
2023/05/01 03:53:10;;;;;;;6.38;5.70;;;;;;;9.15;100.00;62946.78;5009866;28;20227;-77
2023/05/01 03:55:37;;;;;;;6.97;6.38;;;;;;;9.22;100.00;62948.94;5008950;28;20539;-76
2023/05/01 03:58:04;;;;;;;5.93;5.53;;;;;;;9.27;100.00;62949.03;5020973;28;20258;-77
2023/05/01 04:00:32;;;;;;;6.18;5.68;;;;;;;9.34;100.00;62961.34;5017052;28;20219;-77
2023/05/01 04:03:00;;;;;;;5.45;4.95;;;;;;;9.42;100.00;62964.03;5007871;28;20378;-77
2023/05/01 04:05:28;;;;;;;5.20;4.80;;;;;;;9.46;100.00;62971.22;5014289;28;20213;-76
2023/05/01 04:07:56;;;;;;;5.38;4.50;;;;;;;9.56;100.00;62984.09;5009081;28;20234;-76
2023/05/01 04:10:23;;;;;;;4.88;4.57;;;;;;;9.66;100.00;62994.44;5025510;28;20221;-77
2023/05/01 04:12:51;;;;;;;4.85;4.45;;;;;;;9.76;100.00;63004.78;5011982;28;20219;-77
2023/05/01 04:15:18;;;;;;;5.35;4.95;;;;;;;9.83;100.00;63016.59;5027802;28;20214;-75
2023/05/01 04:17:46;;;;;;;5.72;5.22;;;;;;;9.94;100.00;63020.84;5026056;28;20288;-76
2023/05/01 04:20:15;;;;;;;5.15;4.82;;;;;;;10.05;100.00;63036.81;5016777;28;20202;-77
2023/05/01 04:22:43;;;;;;;5.10;4.53;;;;;;;10.19;100.00;63048.78;5007951;28;20544;-78
2023/05/01 04:25:10;;;;;;;5.65;5.05;;;;;;;10.28;100.00;63055.53;5007840;28;20247;-75
2023/05/01 04:27:38;;;;;;;4.80;4.38;;;;;;;10.33;100.00;63063.78;5016962;28;20292;-76
2023/05/01 04:30:06;;;;;;;5.38;4.97;;;;;;;10.46;100.00;63079.25;5019093;28;20262;-76
2023/05/01 04:32:33;;;;;;;5.60;5.20;;;;;;;10.62;100.00;63090.72;5006409;28;20219;-76
2023/05/01 04:35:00;;;;;;;6.07;5.57;;;;;;;10.77;100.00;63108.78;5009579;28;20195;-75
2023/05/01 04:37:27;;;;;;;5.20;4.78;;;;;;;10.88;100.00;63122.22;5029229;28;20280;-76
2023/05/01 04:39:55;;;;;;;5.57;5.10;;;;;;;10.98;100.00;63130.00;5023824;28;20233;-75
2023/05/01 04:42:22;;;;;;;7.13;6.43;;;;;;;10.89;100.00;63120.72;5010822;28;20500;-77
2023/05/01 04:44:49;;;;;;;6.90;5.47;;;;;;;11.06;100.00;63138.81;5022651;28;20316;-77
2023/05/01 04:47:16;;;;;;;5.97;5.47;;;;;;;11.19;100.00;63151.75;5025592;28;20250;-76
2023/05/01 04:49:43;;;;;;;6.00;5.50;;;;;;;11.26;100.00;63162.09;5006640;28;20195;-76
2023/05/01 04:52:11;;;;;;;5.80;5.40;;;;;;;11.29;100.00;63164.66;5009404;28;20215;-77
2023/05/01 04:54:38;;;;;;;6.30;5.80;;;;;;;11.12;100.00;63139.94;5011807;28;20449;-77
2023/05/01 04:57:07;;;;;;;10.52;6.25;;;;;;;11.19;100.00;63152.28;5008912;28;20485;-77
2023/05/01 04:59:34;;;;;;;7.53;6.50;;;;;;;11.29;100.00;63162.13;5014976;28;20271;-76
2023/05/01 05:02:01;;;;;;;7.57;6.88;;;;;;;11.27;100.00;63160.56;5008595;28;20222;-78
2023/05/01 05:04:28;;;;;;;7.38;6.55;;;;;;;11.48;100.00;63181.78;5009129;28;20203;-77
2023/05/01 05:06:55;;;;;;;7.05;6.35;;;;;;;11.66;100.00;63199.94;5006211;28;20295;-75
2023/05/01 05:09:22;;;;;;;6.85;6.35;;;;;;;11.76;100.00;63213.38;5004803;28;20223;-76
2023/05/01 05:11:49;;;;;;;7.38;6.68;;;;;;;11.68;100.00;63202.53;5007581;28;20274;-75
2023/05/01 05:14:18;;;;;;;8.13;6.90;;;;;;;11.64;100.00;63198.41;5005994;28;20233;-76
2023/05/01 05:16:45;;;;;;;12.57;7.05;;;;;;;11.64;100.00;63200.94;5007955;28;20220;-74
2023/05/01 05:19:12;;;;;;;7.80;7.18;;;;;;;11.79;100.00;63213.94;5009315;28;20199;-76
2023/05/01 05:21:39;;;;;;;8.57;7.63;;;;;;;11.82;100.00;63217.03;5009938;28;20203;-74
2023/05/01 05:24:06;;;;;;;9.02;8.23;;;;;;;11.66;100.00;63199.94;5007517;28;20191;-75
2023/05/01 05:26:33;;;;;;;9.18;7.65;;;;;;;11.76;100.00;63210.31;5007962;28;20214;-76
2023/05/01 05:29:00;;;;;;;8.05;7.40;;;;;;;11.88;100.00;63225.81;5010324;28;20203;-76
2023/05/01 05:31:32;;;;;;;9.52;8.15;;;;;;;12.15;100.00;63250.72;5025978;28;20199;-77
2023/05/01 05:33:59;;;;;;;8.80;8.07;;;;;;;12.30;100.00;63266.78;5014132;28;20195;-77
2023/05/01 05:36:26;;;;;;;10.93;8.32;;;;;;;12.08;100.00;63243.97;5005767;28;20203;-75
2023/05/01 05:38:54;;;;;;;10.13;8.57;;;;;;;12.21;100.00;63257.47;5012077;28;20251;-77
2023/05/01 05:41:21;;;;;;;11.60;9.27;;;;;;;12.35;100.00;63269.44;5022046;28;20190;-77
2023/05/01 05:43:48;;;;;;;9.70;8.70;;;;;;;12.49;100.00;63286.47;5019304;28;20227;-76
2023/05/01 05:46:15;;;;;;;12.43;8.73;;;;;;;12.50;100.00;63287.53;5018275;28;20210;-76
2023/05/01 05:48:44;;;;;;;9.98;8.93;;;;;;;12.51;100.00;63290.59;5016308;28;20219;-75
2023/05/01 05:51:11;;;;;;;10.95;9.95;;;;;;;12.31;100.00;63262.19;5006478;28;20204;-75
2023/05/01 05:53:38;;;;;;;10.43;9.35;;;;;;;12.28;100.00;63264.19;5011022;28;20582;-77
2023/05/01 05:56:06;;;;;;;13.30;9.57;;;;;;;12.28;100.00;63262.16;5014688;28;20623;-75
2023/05/01 05:58:32;;;;;;;10.48;9.57;;;;;;;12.39;100.00;63270.50;5022407;28;20227;-75
2023/05/01 06:00:59;;;;;;;12.07;10.07;;;;;;;12.61;100.00;63301.47;5013570;28;20508;-74
2023/05/01 06:03:27;;;;;;;11.40;10.15;;;;;;;12.85;100.00;63325.84;5008185;28;20223;-78
2023/05/01 06:05:55;;;;;;;11.65;8.95;;;;;;;12.95;100.00;63333.66;5009384;28;20210;-76
2023/05/01 06:08:22;;;;;;;12.68;10.35;;;;;;;12.88;100.00;63328.97;5009204;28;20238;-76
2023/05/01 06:10:50;;;;;;;10.45;9.45;;;;;;;12.76;100.00;63311.41;5012745;28;20207;-76
2023/05/01 06:13:17;;;;;;;10.13;9.13;;;;;;;12.96;100.00;63334.69;5013862;28;20215;-75
2023/05/01 06:15:44;;;;;;;14.00;10.02;;;;;;;12.95;100.00;63330.59;5010039;28;20207;-75
2023/05/01 06:18:14;;;;;;;10.23;9.32;;;;;;;12.80;100.00;63315.56;5017913;28;20291;-76
2023/05/01 06:20:41;;;;;;;11.07;8.77;;;;;;;12.90;100.00;63328.47;5003363;28;20198;-78
2023/05/01 06:23:12;;;;;;;11.55;10.00;;;;;;;13.01;100.00;63344.50;5005110;28;20215;-77
2023/05/01 06:25:39;;;;;;;11.85;9.32;;;;;;;13.18;100.00;63357.56;5005911;28;20390;-76
2023/05/01 06:28:06;;;;;;;11.88;9.75;;;;;;;13.27;100.00;63366.38;5017306;28;20311;-77
2023/05/01 06:30:33;;;;;;;11.38;9.75;;;;;;;13.28;99.15;63364.84;5013593;28;20382;-75
2023/05/01 06:33:01;;;;;;;18.80;9.57;;;;;;;13.42;99.46;63384.47;5020453;28;20234;-77
2023/05/01 06:35:28;;;;;;;10.60;9.60;;;;;;;13.56;98.92;63396.97;5016928;28;20375;-76
2023/05/01 06:37:55;;;;;;;12.95;10.45;;;;;;;13.58;100.00;63398.53;5010917;28;20256;-75
2023/05/01 06:40:23;;;;;;;13.20;9.88;;;;;;;13.81;97.93;63422.41;5016796;28;20281;-77
2023/05/01 06:42:50;;;;;;;13.15;9.98;;;;;;;13.75;97.27;63416.69;5015272;28;20238;-77
2023/05/01 06:45:17;;;;;;;10.23;9.32;;;;;;;13.86;95.15;63427.59;5007654;28;20203;-75
2023/05/01 06:47:44;;;;;;;10.05;8.98;;;;;;;13.89;95.04;63431.22;5015571;28;20214;-75
2023/05/01 06:50:12;;;;;;;12.95;9.70;;;;;;;14.02;92.99;63443.69;5024198;28;20201;-75
2023/05/01 06:52:40;;;;;;;14.05;8.68;;;;;;;14.21;91.61;63463.94;5012174;28;20231;-77
2023/05/01 06:55:08;;;;;;;9.38;8.52;;;;;;;14.38;89.49;63481.59;5007500;28;20207;-77
2023/05/01 06:57:38;;;;;;;8.43;7.60;;;;;;;14.57;87.10;63500.81;5008781;28;20226;-77
2023/05/01 07:00:09;;;;;;;8.40;7.70;;;;;;;14.66;86.50;63508.13;5010640;28;20222;-77
2023/05/01 07:02:37;;;;;;;10.43;7.55;;;;;;;14.60;85.09;63509.56;5012796;28;20215;-78
2023/05/01 07:05:04;;;;;;;8.23;7.47;;;;;;;14.60;83.70;63509.06;5024324;28;20208;-74
2023/05/01 07:07:31;;;;;;;8.00;7.30;;;;;;;14.68;84.41;63512.75;5027776;28;20250;-77
2023/05/01 07:09:59;;;;;;;7.50;6.78;;;;;;;14.78;83.04;63523.16;5010601;28;20214;-75
2023/05/01 07:12:26;;;;;;;7.78;7.07;;;;;;;14.72;80.71;63518.97;5022931;28;20226;-75
2023/05/01 07:14:55;;;;;;;8.40;7.30;;;;;;;14.75;81.42;63525.13;5022595;28;20207;-77
2023/05/01 07:17:23;;;;;;;8.90;6.03;;;;;;;14.77;79.42;63524.66;5014423;28;20474;-76
2023/05/01 07:19:50;;;;;;;9.55;6.80;;;;;;;14.74;80.84;63518.97;5016062;28;20258;-76
2023/05/01 07:22:22;;;;;;;5.80;5.40;;;;;;;15.03;78.53;63549.13;5011255;28;20426;-75
2023/05/01 07:24:49;;;;;;;8.00;6.38;;;;;;;15.22;78.96;63565.25;5010663;28;20207;-77
2023/05/01 07:27:17;;;;;;;6.47;5.95;;;;;;;15.47;76.43;63594.34;5011892;28;20282;-77
2023/05/01 07:29:44;;;;;;;7.15;6.45;;;;;;;15.70;74.11;63618.25;5012901;28;20444;-78
2023/05/01 07:32:13;;;;;;;6.93;6.22;;;;;;;15.82;73.84;63635.34;5014622;28;20921;-76
2023/05/01 07:34:43;;;;;;;6.25;5.68;;;;;;;15.85;73.01;63633.31;5022686;28;20206;-78
2023/05/01 07:37:39;;;;;;;6.40;5.65;;;;;;;15.87;70.38;63635.41;5029962;28;20206;-77
2023/05/01 07:40:11;;;;;;;6.10;5.70;;;;;;;16.01;69.22;63652.53;5005981;28;20194;-77
2023/05/01 07:42:39;;;;;;;6.00;5.45;;;;;;;16.01;70.37;63647.91;5031639;28;20244;-78
2023/05/01 07:45:07;;;;;;;6.30;5.63;;;;;;;15.99;67.49;63650.44;5028153;28;20260;-76
2023/05/01 07:47:36;;;;;;;6.13;5.60;;;;;;;15.91;66.44;63642.66;5024264;28;20447;-77
2023/05/01 07:50:04;;;;;;;5.85;5.35;;;;;;;15.97;67.43;63648.38;5017193;28;20202;-75
2023/05/01 07:52:31;;;;;;;8.70;5.75;;;;;;;15.84;65.57;63632.28;5014027;28;20217;-76
2023/05/01 07:54:58;;;;;;;7.38;6.40;;;;;;;15.90;66.88;63639.03;5020083;28;20267;-76
2023/05/01 07:57:26;;;;;;;5.63;5.15;;;;;;;16.06;66.35;63657.72;5015806;28;20221;-77
2023/05/01 07:59:55;;;;;;;6.43;5.57;;;;;;;16.28;64.78;63682.66;5011113;28;20456;-76
2023/05/01 08:02:22;;;;;;;6.90;6.30;;;;;;;16.39;68.20;63691.53;5012492;28;20238;-75
2023/05/01 08:04:50;;;;;;;6.75;5.68;;;;;;;16.31;64.96;63681.16;5010344;28;20368;-75
2023/05/01 08:07:17;;;;;;;6.15;5.72;;;;;;;16.33;65.48;63685.81;5008911;28;20540;-76
2023/05/01 08:09:45;;;;;;;9.00;6.47;;;;;;;16.51;65.60;63702.00;5026856;28;20217;-76
2023/05/01 08:12:13;;;;;;;8.15;7.45;;;;;;;16.67;67.56;63718.13;5023610;28;20256;-77
2023/05/01 08:14:40;;;;;;;9.48;7.95;;;;;;;16.49;66.68;63702.47;5018407;28;20195;-77
2023/05/01 08:17:08;;;;;;;8.40;6.38;;;;;;;16.62;62.88;63713.44;5008962;28;20219;-78
2023/05/01 08:19:35;;;;;;;8.13;6.45;;;;;;;16.77;63.23;63731.63;5014694;28;20300;-77
2023/05/01 08:22:03;;;;;;;7.40;6.80;;;;;;;17.01;63.15;63756.59;5030374;28;20531;-75
2023/05/01 08:24:30;;;;;;;5.93;5.53;;;;;;;16.94;58.85;63748.78;5020384;28;20203;-74
2023/05/01 08:26:58;;;;;;;6.53;5.93;;;;;;;17.06;59.76;63758.69;5013094;28;20281;-76
2023/05/01 08:29:25;;;;;;;8.15;5.75;;;;;;;17.14;60.34;63767.03;5007429;28;20198;-76
2023/05/01 08:31:53;;;;;;;5.38;4.93;;;;;;;17.40;58.05;63796.13;5008638;28;20223;-76
2023/05/01 08:34:21;;;;;;;4.93;4.28;;;;;;;17.66;57.16;63821.19;5016418;28;20229;-77
2023/05/01 08:36:48;;;;;;;6.30;5.03;;;;;;;17.85;54.48;63837.88;5011916;28;20206;-77
2023/05/01 08:39:17;;;;;;;5.28;4.70;;;;;;;18.03;53.81;63859.72;5010198;28;20226;-75
2023/05/01 08:41:47;;;;;;;5.43;4.93;;;;;;;17.98;54.44;63854.00;5018351;28;20194;-75
2023/05/01 08:44:15;;;;;;;4.40;4.10;;;;;;;17.99;52.39;63855.03;5014829;28;20195;-76
2023/05/01 08:46:48;;;;;;;6.07;5.57;;;;;;;17.85;55.39;63840.44;5008175;28;20369;-76
2023/05/01 08:49:18;;;;;;;5.13;4.75;;;;;;;18.00;53.89;63858.66;5020222;28;20207;-77
2023/05/01 08:51:47;;;;;;;5.65;4.45;;;;;;;18.19;55.80;63883.59;5018609;28;20190;-76
2023/05/01 08:54:17;;;;;;;5.65;5.13;;;;;;;18.17;54.50;63878.94;5018367;28;20206;-77
2023/05/01 08:56:47;;;;;;;6.65;4.63;;;;;;;18.18;54.74;63874.81;5015598;28;20545;-77
2023/05/01 08:59:16;;;;;;;4.53;3.95;;;;;;;18.30;52.38;63892.47;5008855;28;20242;-76
2023/05/01 09:01:46;;;;;;;4.20;3.80;;;;;;;18.46;51.51;63903.50;5012009;28;20203;-76
2023/05/01 09:04:14;;;;;;;4.13;3.90;;;;;;;18.12;52.06;63868.59;5025964;28;20256;-78
2023/05/01 09:06:43;;;;;;;3.85;2.72;;;;;;;18.01;50.76;63862.28;5014317;28;20462;-77
2023/05/01 09:09:10;;;;;;;3.15;2.90;;;;;;;18.23;51.82;63880.03;5009201;28;20215;-77
2023/05/01 09:11:39;;;;;;;3.35;3.15;;;;;;;18.38;51.36;63900.81;5011696;28;20446;-76
2023/05/01 09:14:07;;;;;;;3.00;2.80;;;;;;;18.29;47.65;63894.53;5009681;28;20199;-77
2023/05/01 09:16:34;;;;;;;3.65;3.05;;;;;;;18.46;49.67;63906.06;5028385;28;20205;-74
2023/05/01 09:19:02;;;;;;;3.33;3.00;;;;;;;18.20;48.32;63880.00;5013216;28;20249;-76
2023/05/01 09:21:30;;;;;;;3.40;3.20;;;;;;;18.37;48.54;63897.72;5011729;28;20316;-77
2023/05/01 09:23:57;;;;;;;2.53;2.42;;;;;;;18.49;46.64;63907.13;5003407;28;20205;-77
2023/05/01 09:26:25;;;;;;;2.50;2.40;;;;;;;18.61;46.65;63922.22;5006015;28;20361;-76
2023/05/01 09:28:56;;;;;;;4.75;3.13;;;;;;;18.65;49.84;63926.41;5001018;28;20291;-77
2023/05/01 09:31:27;;;;;;;2.42;2.33;;;;;;;18.82;46.12;63946.16;5001853;28;20239;-76
2023/05/01 09:33:56;;;;;;;2.30;2.20;;;;;;;18.75;47.46;63933.72;5006205;28;20226;-78
2023/05/01 09:36:24;;;;;;;2.10;2.00;;;;;;;18.86;45.85;63945.69;5004987;28;20249;-77
2023/05/01 09:38:52;;;;;;;2.63;2.42;;;;;;;18.64;45.45;63919.69;5002518;28;20237;-77
2023/05/01 09:41:21;;;;;;;3.90;3.47;;;;;;;18.90;48.06;63952.44;5007095;28;20209;-79
2023/05/01 09:43:54;;;;;;;3.22;3.03;;;;;;;18.80;50.77;63942.03;5002082;28;20282;-76
2023/05/01 09:46:23;;;;;;;2.85;2.55;;;;;;;18.66;47.76;63932.59;5002217;28;20199;-77
2023/05/01 09:48:55;;;;;;;3.80;3.45;;;;;;;19.00;49.03;63962.34;5003343;28;20233;-78
2023/05/01 09:51:25;;;;;;;3.10;2.90;;;;;;;19.31;46.65;63995.22;5003547;28;20209;-78
2023/05/01 09:53:53;;;;;;;3.33;3.13;;;;;;;19.54;48.50;64019.19;5005278;28;20257;-77
2023/05/01 09:56:21;;;;;;;2.63;2.53;;;;;;;19.77;47.95;64040.09;5004209;28;20244;-77
2023/05/01 09:58:50;;;;;;;3.28;2.60;;;;;;;19.91;46.23;64059.34;5001908;28;20230;-76
2023/05/01 10:01:18;;;;;;;2.85;2.72;;;;;;;19.89;47.41;64052.06;5006246;28;20209;-78
2023/05/01 10:03:46;;;;;;;2.95;2.75;;;;;;;19.95;50.10;64060.94;5006674;28;20547;-79
2023/05/01 10:06:28;;;;;;;3.13;2.78;;;;;;;20.00;48.70;64068.72;4998947;28;20213;-76
2023/05/01 10:08:55;;;;;;;3.15;2.95;;;;;;;19.92;46.64;64055.19;5006703;28;20302;-75
2023/05/01 10:11:22;;;;;;;4.32;2.70;;;;;;;19.78;45.56;64038.53;5005577;28;20389;-75
2023/05/01 10:14:08;;;;;;;2.85;2.75;;;;;;;19.71;46.15;64033.31;5004047;28;20265;-75
2023/05/01 10:16:37;;;;;;;2.72;2.50;;;;;;;19.44;45.43;64005.66;5000298;28;20210;-73
2023/05/01 10:19:06;;;;;;;2.63;2.47;;;;;;;19.47;45.39;64013.97;5005471;28;20591;-75
2023/05/01 10:21:34;;;;;;;7.30;4.60;;;;;;;19.71;45.75;64035.91;5002768;28;20214;-76
2023/05/01 10:24:02;;;;;;;5.82;4.95;;;;;;;19.95;47.30;64058.84;5003352;28;20207;-75
2023/05/01 10:26:30;;;;;;;2.65;2.55;;;;;;;20.19;46.49;64080.81;4989745;28;20207;-75
2023/05/01 10:28:58;;;;;;;2.90;2.75;;;;;;;20.10;44.55;64076.56;5005683;28;20249;-75
2023/05/01 10:31:27;;;;;;;2.65;2.45;;;;;;;19.82;44.46;64045.31;4997526;28;20229;-73
2023/05/01 10:33:56;;;;;;;2.60;2.38;;;;;;;19.41;45.87;64008.22;5004775;28;20565;-74
2023/05/01 10:36:31;;;;;;;2.58;2.30;;;;;;;19.45;47.23;64009.81;5007908;28;20210;-76
2023/05/01 10:38:59;;;;;;;3.30;2.15;;;;;;;19.77;46.80;64042.66;5007338;28;20245;-77
2023/05/01 10:42:09;;;;;;;2.45;2.35;;;;;;;19.85;44.53;64047.91;4990545;28;20214;-75
2023/05/01 10:44:38;;;;;;;2.67;2.58;;;;;;;20.01;44.33;64069.78;5003951;28;20413;-76
2023/05/01 10:47:42;;;;;;;2.80;2.60;;;;;;;20.26;43.46;64095.88;5006247;28;20222;-76
2023/05/01 10:50:14;;;;;;;2.05;1.95;;;;;;;20.38;41.01;64108.41;4991436;28;20211;-75
2023/05/01 10:53:17;;;;;;;2.03;1.90;;;;;;;20.47;41.44;64118.31;5001962;28;20285;-74
2023/05/01 10:55:46;;;;;;;3.70;2.20;;;;;;;20.33;40.40;64103.16;4959069;29;20208;-77
2023/05/01 10:58:34;;;;;;;4.30;1.92;;;;;;;20.54;41.98;64125.63;5000136;28;20215;-76
2023/05/01 11:01:29;;;;;;;2.10;2.00;;;;;;;20.85;41.46;64157.47;5009935;28;20202;-78
2023/05/01 11:03:57;;;;;;;2.22;2.13;;;;;;;20.73;40.85;64139.22;5009917;28;20281;-80
2023/05/01 11:06:26;;;;;;;2.63;2.00;;;;;;;21.07;41.11;64175.25;5015614;28;20252;-79
2023/05/01 11:08:54;;;;;;;1.92;1.83;;;;;;;21.43;42.46;64218.03;5003894;28;20218;-77
2023/05/01 11:11:51;;;;;;;2.53;2.42;;;;;;;21.72;39.83;64245.25;5008546;28;20205;-80
2023/05/01 11:14:18;;;;;;;2.50;2.40;;;;;;;22.15;41.86;64292.25;4948293;29;20204;-77
2023/05/01 11:16:47;;;;;;;3.10;2.25;;;;;;;22.67;40.69;64341.97;4990669;28;20203;-78
2023/05/01 11:19:49;;;;;;;2.15;2.00;;;;;;;23.05;40.27;64380.66;4997645;28;20230;-80
2023/05/01 11:22:19;;;;;;;9.00;2.80;;;;;;;22.96;39.95;64368.63;5008205;28;20226;-77
2023/05/01 11:24:46;;;;;;;2.30;2.10;;;;;;;22.41;42.08;64319.44;5005903;28;20206;-78
2023/05/01 11:27:15;;;;;;;2.22;2.13;;;;;;;22.43;42.64;64316.88;5009472;28;20241;-79
2023/05/01 11:29:47;;;;;;;2.30;2.20;;;;;;;22.66;42.91;64340.91;5009557;28;20383;-78
2023/05/01 11:32:26;;;;;;;2.33;2.22;;;;;;;22.73;41.57;64353.44;5006727;28;20433;-78
2023/05/01 11:34:53;;;;;;;2.97;2.72;;;;;;;22.57;43.20;64331.00;5005694;28;20202;-78
2023/05/01 11:37:39;;;;;;;2.38;2.22;;;;;;;22.54;43.97;64330.44;5003903;28;20226;-77
2023/05/01 11:40:19;;;;;;;4.40;2.28;;;;;;;22.14;42.21;64291.22;5005083;28;20230;-77
2023/05/01 11:42:47;;;;;;;2.50;2.40;;;;;;;21.86;43.10;64256.75;5008607;28;20285;-78